createdAt,value
2019-01-11T00:01:23.448Z,27.80
2019-01-11T00:03:54.697Z,26.83
2019-01-11T00:06:25.983Z,22.23
2019-01-11T00:08:57.323Z,28.63
2019-01-11T00:11:28.522Z,28.30
2019-01-11T00:13:59.953Z,29.43
2019-01-11T00:16:31.335Z,23.20
2019-01-11T00:19:07.051Z,25.47
2019-01-11T00:21:35.650Z,25.30
2019-01-11T00:24:07.152Z,25.60
2019-01-11T00:26:38.414Z,25.13
2019-01-11T00:29:09.785Z,26.57
2019-01-11T00:31:41.067Z,22.47
2019-01-11T00:34:12.443Z,23.10
2019-01-11T00:36:43.733Z,25.93
2019-01-11T00:39:14.924Z,20.53
2019-01-11T00:41:46.082Z,27.63
2019-01-11T00:44:17.328Z,29.40
2019-01-11T00:46:48.520Z,26.80
2019-01-11T00:49:20.274Z,29.00
2019-01-11T00:51:51.521Z,28.53
2019-01-11T00:54:22.748Z,28.10
2019-01-11T00:56:54.045Z,28.03
2019-01-11T00:59:25.412Z,34.03
2019-01-11T01:01:56.692Z,31.60
2019-01-11T01:04:27.982Z,33.63
2019-01-11T01:06:59.358Z,34.30
2019-01-11T01:09:30.621Z,36.03
2019-01-11T01:12:01.851Z,34.27
2019-01-11T01:14:33.160Z,30.47
2019-01-11T01:17:04.801Z,25.10
2019-01-11T01:19:36.247Z,27.53
2019-01-11T01:22:07.626Z,34.80
2019-01-11T01:24:38.947Z,34.43
2019-01-11T01:27:10.204Z,32.13
2019-01-11T01:29:41.380Z,37.43
2019-01-11T01:32:12.617Z,28.93
2019-01-11T01:34:44.845Z,31.53
2019-01-11T01:37:16.210Z,30.47
2019-01-11T01:39:47.484Z,32.33
2019-01-11T01:42:18.748Z,34.57
2019-01-11T01:44:50.032Z,33.10
2019-01-11T01:47:21.427Z,32.17
2019-01-11T01:49:52.692Z,33.13
2019-01-11T01:52:24.022Z,38.27
2019-01-11T01:54:55.235Z,34.27
2019-01-11T01:57:26.445Z,34.70
2019-01-11T01:59:57.618Z,30.27
2019-01-11T02:02:29.142Z,30.87
2019-01-11T02:05:00.336Z,31.73
2019-01-11T02:07:33.047Z,36.73
2019-01-11T02:10:05.436Z,35.23
2019-01-11T02:12:36.642Z,35.80
2019-01-11T02:15:09.982Z,38.27
2019-01-11T02:17:41.571Z,35.40
2019-01-11T02:20:18.435Z,38.13
2019-01-11T02:22:49.815Z,37.17
2019-01-11T02:25:21.225Z,34.73
2019-01-11T02:27:52.526Z,33.87
2019-01-11T02:30:24.500Z,35.17
2019-01-11T02:32:55.906Z,38.07
2019-01-11T02:35:28.154Z,33.57
2019-01-11T02:37:59.550Z,38.30
2019-01-11T02:40:30.837Z,38.43
2019-01-11T02:43:02.453Z,40.47
2019-01-11T02:45:34.799Z,39.70
2019-01-11T02:48:06.106Z,42.27
2019-01-11T02:50:37.340Z,38.97
2019-01-11T02:53:08.697Z,36.57
2019-01-11T02:55:39.883Z,37.43
2019-01-11T02:58:11.131Z,37.53
2019-01-11T03:00:43.809Z,37.63
2019-01-11T03:03:15.046Z,35.57
2019-01-11T03:05:46.309Z,29.40
2019-01-11T03:08:17.711Z,30.40
2019-01-11T03:10:51.783Z,27.83
2019-01-11T03:13:22.926Z,27.90
2019-01-11T03:15:54.181Z,28.27
2019-01-11T03:18:25.497Z,29.80
2019-01-11T03:20:57.980Z,25.47
2019-01-11T03:23:29.312Z,24.60
2019-01-11T03:26:00.508Z,25.97
2019-01-11T03:28:32.002Z,25.87
2019-01-11T03:31:11.285Z,26.00
2019-01-11T03:33:42.546Z,28.33
2019-01-11T03:36:13.811Z,29.47
2019-01-11T03:38:45.093Z,28.83
2019-01-11T03:41:16.346Z,27.53
2019-01-11T03:43:47.531Z,26.60
2019-01-11T03:46:18.809Z,24.30
2019-01-11T03:48:50.090Z,23.63
2019-01-11T03:51:21.484Z,22.93
2019-01-11T03:53:52.654Z,24.83
2019-01-11T03:56:23.881Z,21.50
2019-01-11T03:58:55.400Z,23.43
2019-01-11T04:01:26.638Z,21.63
2019-01-11T04:03:57.828Z,20.70
2019-01-11T04:06:29.116Z,22.23
2019-01-11T04:09:00.429Z,23.73
2019-01-11T04:11:32.938Z,22.60
2019-01-11T04:14:04.484Z,21.43
2019-01-11T04:16:35.725Z,19.60
2019-01-11T04:19:13.506Z,23.30
2019-01-11T04:22:04.108Z,19.70
2019-01-11T04:24:47.092Z,19.23
2019-01-11T04:27:18.392Z,21.73
2019-01-11T04:29:49.796Z,22.83
2019-01-11T04:32:21.142Z,19.23
2019-01-11T04:34:52.358Z,20.13
2019-01-11T04:37:23.582Z,20.83
2019-01-11T04:39:54.999Z,21.13
2019-01-11T04:42:26.324Z,17.80
2019-01-11T04:44:57.703Z,17.03
2019-01-11T04:47:28.947Z,18.13
2019-01-11T04:50:00.312Z,17.20
2019-01-11T04:52:32.051Z,15.40
2019-01-11T04:55:05.675Z,12.63
2019-01-11T04:57:38.492Z,16.17
2019-01-11T05:00:14.616Z,15.07
2019-01-11T05:02:47.471Z,15.87
2019-01-11T05:05:21.797Z,18.10
2019-01-11T05:07:53.161Z,16.10
2019-01-11T05:10:24.469Z,17.00
2019-01-11T05:12:56.647Z,14.33
2019-01-11T05:15:27.803Z,14.20
2019-01-11T05:17:59.039Z,15.77
2019-01-11T05:20:30.339Z,14.90
2019-01-11T05:23:01.548Z,19.20
2019-01-11T05:25:32.774Z,14.73
2019-01-11T05:28:03.996Z,18.50
2019-01-11T05:30:35.277Z,17.47
2019-01-11T05:33:06.513Z,17.07
2019-01-11T05:35:37.764Z,14.70
2019-01-11T05:38:09.009Z,15.87
2019-01-11T05:40:40.309Z,16.97
2019-01-11T05:43:11.651Z,16.60
2019-01-11T05:45:42.801Z,19.93
2019-01-11T05:48:14.154Z,16.50
2019-01-11T05:50:45.316Z,15.47
2019-01-11T05:53:16.796Z,16.63
2019-01-11T05:55:49.401Z,16.60
2019-01-11T05:58:37.852Z,19.63
2019-01-11T06:01:09.169Z,15.83
2019-01-11T06:03:40.400Z,17.77
2019-01-11T06:06:12.342Z,17.30
2019-01-11T06:08:43.565Z,16.67
2019-01-11T06:11:14.800Z,19.47
2019-01-11T06:13:46.005Z,19.30
2019-01-11T06:16:17.257Z,16.97
2019-01-11T06:18:48.532Z,17.80
2019-01-11T06:21:19.899Z,16.63
2019-01-11T06:23:51.265Z,16.67
2019-01-11T06:26:22.569Z,16.67
2019-01-11T06:28:53.765Z,19.67
2019-01-11T06:31:25.033Z,20.40
2019-01-11T06:33:56.197Z,21.40
2019-01-11T06:36:27.562Z,17.47
2019-01-11T06:38:58.830Z,18.27
2019-01-11T06:41:39.864Z,17.97
2019-01-11T06:44:11.126Z,19.37
2019-01-11T06:46:42.385Z,19.30
2019-01-11T06:49:13.678Z,22.20
2019-01-11T06:51:44.892Z,17.30
2019-01-11T06:54:16.191Z,17.10
2019-01-11T06:56:47.535Z,21.77
2019-01-11T06:59:18.761Z,19.47
2019-01-11T07:01:49.925Z,18.47
2019-01-11T07:04:21.175Z,18.73
2019-01-11T07:06:52.416Z,17.53
2019-01-11T07:09:23.631Z,20.57
2019-01-11T07:11:54.915Z,16.33
2019-01-11T07:14:26.283Z,16.93
2019-01-11T07:16:57.501Z,19.47
2019-01-11T07:19:28.773Z,20.10
2019-01-11T07:21:59.994Z,14.10
2019-01-11T07:24:31.335Z,22.40
2019-01-11T07:27:02.836Z,19.63
2019-01-11T07:29:34.158Z,17.77
2019-01-11T07:32:05.546Z,21.57
2019-01-11T07:34:36.855Z,20.43
2019-01-11T07:37:08.148Z,20.47
2019-01-11T07:39:39.484Z,18.53
2019-01-11T07:42:10.657Z,19.33
2019-01-11T07:44:41.972Z,19.27
2019-01-11T07:47:13.154Z,18.73
2019-01-11T07:49:45.477Z,15.77
2019-01-11T07:52:17.033Z,18.97
2019-01-11T07:54:48.214Z,22.23
2019-01-11T07:57:19.503Z,21.57
2019-01-11T07:59:50.713Z,19.97
2019-01-11T08:02:21.954Z,22.07
2019-01-11T08:04:53.162Z,19.47
2019-01-11T08:07:24.562Z,17.40
2019-01-11T08:09:55.873Z,19.00
2019-01-11T08:12:27.129Z,18.80
2019-01-11T08:14:58.345Z,18.63
2019-01-11T08:17:29.652Z,23.23
2019-01-11T08:20:00.965Z,23.83
2019-01-11T08:22:40.974Z,22.60
2019-01-11T08:25:13.107Z,19.90
2019-01-11T08:27:45.902Z,22.83
2019-01-11T08:30:17.097Z,23.67
2019-01-11T08:32:48.458Z,15.50
2019-01-11T08:35:19.656Z,24.47
2019-01-11T08:37:50.923Z,19.33
2019-01-11T08:40:22.283Z,23.97
2019-01-11T08:42:53.499Z,25.40
2019-01-11T08:45:24.745Z,26.70
2019-01-11T08:47:56.000Z,24.13
2019-01-11T08:50:27.347Z,26.07
2019-01-11T08:52:58.578Z,25.07
2019-01-11T08:55:31.564Z,27.17
2019-01-11T08:58:02.825Z,27.47
2019-01-11T09:00:34.084Z,21.73
2019-01-11T09:03:05.508Z,24.07
2019-01-11T09:05:36.720Z,26.30
2019-01-11T09:08:08.030Z,29.53
2019-01-11T09:10:39.234Z,29.47
2019-01-11T09:13:10.426Z,28.17
2019-01-11T09:15:41.713Z,33.23
2019-01-11T09:18:13.449Z,33.83
2019-01-11T09:20:44.790Z,29.83
2019-01-11T09:23:16.033Z,30.13
2019-01-11T09:25:47.323Z,33.00
2019-01-11T09:28:18.579Z,30.43
2019-01-11T09:30:51.229Z,27.80
2019-01-11T09:33:22.552Z,31.00
2019-01-11T09:35:53.871Z,37.43
2019-01-11T09:38:25.096Z,30.00
2019-01-11T09:40:56.302Z,28.23
2019-01-11T09:43:27.498Z,32.50
2019-01-11T09:45:58.954Z,32.17
2019-01-11T09:48:30.161Z,45.57
2019-01-11T09:51:01.403Z,31.97
2019-01-11T09:53:32.576Z,31.90
2019-01-11T09:56:03.968Z,36.33
2019-01-11T09:58:36.355Z,35.00
2019-01-11T10:01:07.754Z,34.17
2019-01-11T10:03:39.075Z,30.13
2019-01-11T10:06:10.312Z,26.17
2019-01-11T10:08:41.617Z,29.33
2019-01-11T10:11:13.606Z,30.03
2019-01-11T10:13:44.939Z,30.43
2019-01-11T10:16:16.175Z,30.03
2019-01-11T10:18:47.333Z,28.73
2019-01-11T10:21:22.287Z,29.50
2019-01-11T10:23:51.434Z,28.53
2019-01-11T10:26:22.646Z,30.40
2019-01-11T10:28:53.910Z,29.47
2019-01-11T10:31:26.222Z,36.53
2019-01-11T10:33:57.436Z,33.13
2019-01-11T10:36:29.011Z,32.33
2019-01-11T10:39:00.400Z,28.43
2019-01-11T10:41:33.113Z,29.93
2019-01-11T10:44:04.375Z,32.53
2019-01-11T10:46:37.845Z,28.20
2019-01-11T10:49:09.135Z,31.10
2019-01-11T10:51:40.373Z,28.93
2019-01-11T10:54:19.798Z,29.27
2019-01-11T10:56:51.073Z,32.87
2019-01-11T10:59:22.298Z,23.43
2019-01-11T11:01:53.512Z,28.83
2019-01-11T11:04:24.720Z,31.30
2019-01-11T11:06:56.070Z,31.80
2019-01-11T11:09:27.662Z,27.43
2019-01-11T11:11:58.863Z,33.47
2019-01-11T11:14:30.383Z,34.57
2019-01-11T11:17:01.583Z,30.30
2019-01-11T11:19:32.782Z,28.73
2019-01-11T11:22:04.032Z,29.23
2019-01-11T11:24:35.348Z,27.93
2019-01-11T11:27:06.583Z,24.93
2019-01-11T11:29:37.762Z,26.17
2019-01-11T11:32:08.914Z,22.03
2019-01-11T11:34:43.043Z,9.77
2019-01-11T11:37:17.785Z,20.77
2019-01-11T11:39:49.246Z,22.93
2019-01-11T11:42:20.506Z,21.23
2019-01-11T11:44:51.656Z,20.27
2019-01-11T11:47:23.113Z,19.30
2019-01-11T11:49:54.623Z,17.53
2019-01-11T11:52:25.920Z,23.93
2019-01-11T11:54:57.125Z,18.23
2019-01-11T11:57:28.353Z,23.13
2019-01-11T11:59:59.575Z,21.20
2019-01-11T12:02:30.881Z,21.27
2019-01-11T12:05:02.103Z,25.90
2019-01-11T12:07:33.343Z,17.70
2019-01-11T12:10:05.336Z,19.00
2019-01-11T12:12:36.711Z,16.53
2019-01-11T12:15:08.336Z,17.80
2019-01-11T12:17:39.658Z,17.20
2019-01-11T12:20:15.189Z,13.40
2019-01-11T12:22:46.380Z,18.33
2019-01-11T12:25:17.656Z,16.73
2019-01-11T12:27:49.710Z,12.63
2019-01-11T12:30:21.016Z,13.37
2019-01-11T12:32:52.539Z,10.30
2019-01-11T12:35:23.748Z,17.90
2019-01-11T12:37:55.039Z,17.07
2019-01-11T12:40:26.228Z,11.80
2019-01-11T12:42:57.736Z,11.97
2019-01-11T12:45:28.984Z,14.90
2019-01-11T12:48:00.202Z,15.20
2019-01-11T12:50:31.331Z,13.47
2019-01-11T12:53:02.648Z,14.83
2019-01-11T12:55:33.792Z,17.70
2019-01-11T12:58:04.963Z,11.90
2019-01-11T13:00:36.328Z,15.47
2019-01-11T13:03:07.518Z,16.07
2019-01-11T13:05:38.741Z,13.23
2019-01-11T13:08:10.113Z,14.17
2019-01-11T13:10:44.726Z,10.60
2019-01-11T13:13:15.992Z,16.00
2019-01-11T13:15:47.284Z,11.73
2019-01-11T13:18:18.563Z,14.17
2019-01-11T13:20:51.298Z,10.90
2019-01-11T13:23:24.084Z,9.10
2019-01-11T13:25:55.235Z,10.63
2019-01-11T13:28:26.571Z,9.03
2019-01-11T13:30:57.896Z,10.10
2019-01-11T13:33:29.443Z,8.80
2019-01-11T13:36:00.742Z,8.17
2019-01-11T13:38:33.726Z,7.23
2019-01-11T13:41:05.214Z,8.10
2019-01-11T13:43:36.499Z,7.77
2019-01-11T13:46:07.808Z,8.40
2019-01-11T13:48:39.052Z,7.47
2019-01-11T13:51:10.354Z,7.90
2019-01-11T13:53:41.582Z,7.83
2019-01-11T13:56:12.840Z,8.37
2019-01-11T13:58:44.140Z,8.47
2019-01-11T14:01:15.343Z,8.20
2019-01-11T14:03:46.509Z,8.97
2019-01-11T14:06:17.749Z,10.67
2019-01-11T14:08:48.984Z,10.93
2019-01-11T14:11:21.306Z,9.83
2019-01-11T14:13:52.503Z,9.13
2019-01-11T14:16:23.648Z,11.07
2019-01-11T14:18:54.966Z,8.87
2019-01-11T14:21:26.161Z,7.37
2019-01-11T14:23:57.337Z,9.03
2019-01-11T14:26:28.572Z,9.30
2019-01-11T14:28:59.845Z,9.13
2019-01-11T14:31:31.143Z,10.00
2019-01-11T14:34:02.389Z,11.33
2019-01-11T14:36:33.601Z,12.90
2019-01-11T14:39:08.227Z,11.50
2019-01-11T14:41:39.584Z,12.20
2019-01-11T14:44:12.002Z,11.17
2019-01-11T14:46:43.310Z,12.10
2019-01-11T14:49:14.537Z,9.10
2019-01-11T14:51:46.091Z,12.30
2019-01-11T14:54:17.310Z,10.40
2019-01-11T14:56:48.516Z,12.70
2019-01-11T14:59:19.732Z,12.43
2019-01-11T15:01:51.260Z,12.93
2019-01-11T15:04:22.671Z,11.93
2019-01-11T15:06:54.267Z,12.67
2019-01-11T15:09:25.579Z,14.40
2019-01-11T15:11:56.788Z,11.30
2019-01-11T15:14:28.014Z,6.17
2019-01-11T15:16:59.232Z,11.57
2019-01-11T15:19:30.482Z,10.23
2019-01-11T15:22:01.729Z,14.87
2019-01-11T15:24:33.196Z,12.93
2019-01-11T15:27:04.602Z,14.00
2019-01-11T15:29:36.104Z,13.70
2019-01-11T15:32:07.280Z,13.73
2019-01-11T15:34:38.514Z,12.40
2019-01-11T15:37:09.739Z,13.77
2019-01-11T15:39:40.959Z,11.60
2019-01-11T15:42:12.152Z,11.80
2019-01-11T15:44:43.404Z,12.60
2019-01-11T15:47:14.699Z,12.17
2019-01-11T15:49:45.938Z,13.73
2019-01-11T15:52:17.175Z,14.87
2019-01-11T15:54:48.430Z,12.60
2019-01-11T15:57:25.188Z,10.27
2019-01-11T16:00:01.315Z,12.40
2019-01-11T16:02:33.536Z,12.17
2019-01-11T16:05:04.988Z,13.53
2019-01-11T16:07:36.266Z,11.37
2019-01-11T16:10:12.254Z,10.83
2019-01-11T16:13:22.131Z,11.80
2019-01-11T16:16:23.955Z,11.13
2019-01-11T16:18:56.872Z,11.17
2019-01-11T16:21:28.149Z,10.27
2019-01-11T16:23:59.330Z,10.17
2019-01-11T16:26:30.728Z,11.03
2019-01-11T16:29:02.024Z,7.43
2019-01-11T16:31:33.265Z,6.43
2019-01-11T16:34:04.405Z,6.30
2019-01-11T16:36:35.868Z,6.13
2019-01-11T16:39:09.114Z,6.67
2019-01-11T16:41:40.376Z,6.07
2019-01-11T16:44:11.609Z,5.90
2019-01-11T16:46:42.824Z,5.93
2019-01-11T16:49:14.077Z,5.37
2019-01-11T16:51:45.306Z,5.40
2019-01-11T16:54:16.667Z,7.57
2019-01-11T16:56:47.983Z,5.30
2019-01-11T16:59:19.235Z,4.80
2019-01-11T17:01:50.545Z,5.33
2019-01-11T17:04:21.857Z,7.43
2019-01-11T17:06:53.121Z,4.67
2019-01-11T17:09:24.333Z,4.20
2019-01-11T17:11:55.600Z,5.10
2019-01-11T17:14:26.882Z,5.57
2019-01-11T17:16:58.214Z,3.67
2019-01-11T17:19:29.662Z,3.90
2019-01-11T17:22:00.817Z,6.50
2019-01-11T17:24:32.094Z,6.70
2019-01-11T17:27:03.353Z,5.23
2019-01-11T17:29:34.531Z,3.67
2019-01-11T17:32:05.890Z,4.60
2019-01-11T17:34:37.158Z,6.83
2019-01-11T17:37:08.330Z,4.40
2019-01-11T17:39:39.674Z,13.50
2019-01-11T17:42:10.990Z,3.80
2019-01-11T17:44:42.294Z,6.03
2019-01-11T17:47:13.475Z,5.60
2019-01-11T17:49:44.761Z,8.30
2019-01-11T17:52:15.942Z,8.17
2019-01-11T17:54:47.192Z,6.13
2019-01-11T17:57:18.419Z,4.83
2019-01-11T17:59:50.670Z,11.03
2019-01-11T18:02:21.967Z,8.30
2019-01-11T18:04:53.130Z,13.70
2019-01-11T18:07:24.417Z,8.00
2019-01-11T18:09:55.969Z,6.63
2019-01-11T18:12:27.125Z,4.50
2019-01-11T18:14:58.548Z,7.10
2019-01-11T18:17:30.143Z,6.57
2019-01-11T18:20:01.446Z,16.53
2019-01-11T18:22:33.871Z,8.93
2019-01-11T18:25:05.807Z,4.00
2019-01-11T18:27:37.060Z,9.73
2019-01-11T18:30:10.393Z,8.17
2019-01-11T18:32:41.814Z,12.37
2019-01-11T18:35:13.336Z,9.63
2019-01-11T18:37:44.789Z,8.90
2019-01-11T18:40:18.760Z,9.90
2019-01-11T18:42:50.190Z,10.50
2019-01-11T18:45:28.384Z,9.43
2019-01-11T18:47:54.392Z,9.43
2019-01-11T18:50:25.703Z,11.37
2019-01-11T18:52:56.887Z,11.10
2019-01-11T18:55:28.138Z,11.33
2019-01-11T18:57:59.379Z,13.00
2019-01-11T19:00:30.860Z,18.93
2019-01-11T19:03:02.058Z,14.00
2019-01-11T19:05:33.499Z,12.70
2019-01-11T19:08:05.037Z,5.13
2019-01-11T19:10:36.255Z,14.47
2019-01-11T19:13:07.457Z,9.00
2019-01-11T19:15:38.736Z,25.57
2019-01-11T19:18:10.013Z,17.57
2019-01-11T19:20:41.175Z,8.13
2019-01-11T19:23:12.523Z,8.67
2019-01-11T19:25:43.777Z,9.47
2019-01-11T19:28:15.099Z,19.97
2019-01-11T19:30:47.483Z,14.73
2019-01-11T19:33:18.745Z,13.70
2019-01-11T19:35:50.042Z,11.10
2019-01-11T19:38:22.327Z,18.03
2019-01-11T19:40:53.907Z,16.27
2019-01-11T19:43:25.742Z,15.37
2019-01-11T19:45:57.123Z,14.10
2019-01-11T19:48:28.519Z,16.43
2019-01-11T19:50:59.853Z,16.17
2019-01-11T19:53:31.306Z,9.67
2019-01-11T19:56:02.734Z,15.70
2019-01-11T19:58:34.072Z,13.60
2019-01-11T20:01:05.694Z,14.30
2019-01-11T20:03:36.945Z,18.63
2019-01-11T20:06:08.423Z,15.20
2019-01-11T20:08:39.982Z,12.93
2019-01-11T20:11:11.483Z,11.23
2019-01-11T20:13:42.861Z,11.77
2019-01-11T20:16:14.429Z,14.37
2019-01-11T20:18:45.914Z,14.33
2019-01-11T20:21:17.360Z,18.17
2019-01-11T20:23:52.746Z,23.43
2019-01-11T20:26:24.100Z,11.97
2019-01-11T20:28:55.447Z,21.63
2019-01-11T20:31:26.793Z,16.83
2019-01-11T20:33:58.275Z,11.80
2019-01-11T20:36:32.206Z,21.50
2019-01-11T20:39:04.665Z,7.80
2019-01-11T20:41:36.465Z,18.33
2019-01-11T20:44:08.538Z,16.70
2019-01-11T20:46:40.488Z,18.53
2019-01-11T20:49:13.246Z,18.03
2019-01-11T20:51:44.577Z,17.77
2019-01-11T20:54:16.095Z,19.23
2019-01-11T20:56:47.382Z,18.10
2019-01-11T20:59:18.777Z,23.37
2019-01-11T21:01:50.177Z,13.70
2019-01-11T21:04:21.626Z,17.97
2019-01-11T21:06:53.048Z,24.37
2019-01-11T21:09:24.361Z,12.00
2019-01-11T21:11:55.748Z,23.13
2019-01-11T21:14:27.197Z,14.00
2019-01-11T21:16:58.521Z,14.13
2019-01-11T21:19:30.094Z,18.83
2019-01-11T21:22:01.448Z,17.27
2019-01-11T21:24:32.974Z,15.93
2019-01-11T21:27:04.208Z,20.67
2019-01-11T21:29:35.435Z,18.53
2019-01-11T21:32:06.749Z,20.17
2019-01-11T21:34:37.935Z,23.57
2019-01-11T21:37:09.238Z,13.83
2019-01-11T21:39:40.538Z,24.13
2019-01-11T21:42:11.785Z,21.63
2019-01-11T21:44:42.966Z,22.50
2019-01-11T21:47:15.203Z,19.53
2019-01-11T21:49:46.485Z,18.63
2019-01-11T21:52:17.681Z,21.53
2019-01-11T21:54:49.358Z,26.17
2019-01-11T21:57:20.572Z,11.10
2019-01-11T21:59:51.800Z,21.43
2019-01-11T22:02:23.074Z,16.33
2019-01-11T22:04:54.282Z,20.93
2019-01-11T22:07:25.469Z,22.90
2019-01-11T22:09:56.734Z,20.57
2019-01-11T22:12:28.049Z,18.70
2019-01-11T22:15:00.482Z,26.97
2019-01-11T22:17:31.840Z,19.53
2019-01-11T22:20:03.119Z,23.90
2019-01-11T22:22:34.453Z,17.73
2019-01-11T22:25:07.171Z,21.47
2019-01-11T22:27:38.531Z,18.67
2019-01-11T22:30:18.096Z,22.10
2019-01-11T22:32:49.392Z,21.83
2019-01-11T22:35:20.893Z,20.70
2019-01-11T22:37:52.034Z,21.63
2019-01-11T22:40:24.072Z,26.53
2019-01-11T22:42:59.536Z,19.63
2019-01-11T22:45:30.735Z,19.13
2019-01-11T22:48:02.075Z,31.10
2019-01-11T22:50:33.339Z,20.60
2019-01-11T22:53:04.595Z,28.70
2019-01-11T22:55:35.855Z,17.07
2019-01-11T22:58:07.136Z,25.83
2019-01-11T23:01:16.323Z,27.67
2019-01-11T23:03:50.587Z,22.70
2019-01-11T23:07:04.964Z,19.93
2019-01-11T23:10:04.016Z,24.07
2019-01-11T23:13:00.938Z,28.03
2019-01-11T23:15:38.122Z,22.03
2019-01-11T23:18:29.415Z,23.33
2019-01-11T23:21:04.212Z,29.17
2019-01-11T23:23:35.527Z,28.07
2019-01-11T23:26:06.706Z,21.30
2019-01-11T23:28:37.901Z,23.13
2019-01-11T23:31:09.210Z,23.47
2019-01-11T23:33:40.320Z,19.80
2019-01-11T23:36:11.500Z,26.70
2019-01-11T23:38:42.687Z,16.97
2019-01-11T23:41:14.043Z,26.27
2019-01-11T23:43:45.229Z,20.47
2019-01-11T23:46:16.451Z,24.53
2019-01-11T23:48:47.733Z,26.73
2019-01-11T23:51:19.032Z,25.17
2019-01-11T23:53:50.798Z,24.07
2019-01-11T23:56:22.194Z,20.00
2019-01-11T23:58:53.546Z,23.03
